createdAt,value
2023-02-28T00:00:47.382Z,0.60
2023-02-28T00:01:47.344Z,0.90
2023-02-28T00:02:47.331Z,0.40
2023-02-28T00:03:47.353Z,0.50
2023-02-28T00:04:47.298Z,0.50
2023-02-28T00:05:47.300Z,0.60
2023-02-28T00:06:47.267Z,0.70
2023-02-28T00:07:47.236Z,0.60
2023-02-28T00:08:47.238Z,0.70
2023-02-28T00:09:47.223Z,0.50
2023-02-28T00:10:47.265Z,1.10
2023-02-28T00:11:47.282Z,0.60
2023-02-28T00:12:47.177Z,0.90
2023-02-28T00:13:47.275Z,0.70
2023-02-28T00:14:47.157Z,0.50
2023-02-28T00:15:47.177Z,0.90
2023-02-28T00:16:47.182Z,0.70
2023-02-28T00:17:47.294Z,0.60
2023-02-28T00:18:47.110Z,0.50
2023-02-28T00:19:47.087Z,0.40
2023-02-28T00:20:47.109Z,0.80
2023-02-28T00:21:47.070Z,0.50
2023-02-28T00:22:47.062Z,0.60
2023-02-28T00:23:47.063Z,0.60
2023-02-28T00:24:47.043Z,0.40
2023-02-28T00:25:47.041Z,0.70
2023-02-28T00:26:47.007Z,0.50
2023-02-28T00:27:47.122Z,0.40
2023-02-28T00:28:47.135Z,0.60
2023-02-28T00:29:49.785Z,0.60
2023-02-28T00:30:47.081Z,0.80
2023-02-28T00:31:47.011Z,0.60
2023-02-28T00:32:46.937Z,0.60
2023-02-28T00:33:47.051Z,0.40
2023-02-28T00:34:47.005Z,0.60
2023-02-28T00:35:46.939Z,0.50
2023-02-28T00:36:46.889Z,0.50
2023-02-28T00:37:46.887Z,0.40
2023-02-28T00:38:46.856Z,0.40
2023-02-28T00:39:46.846Z,0.40
2023-02-28T00:40:46.863Z,0.60
2023-02-28T00:41:46.823Z,0.50
2023-02-28T00:42:46.792Z,0.50
2023-02-28T00:43:46.791Z,0.50
2023-02-28T00:44:46.781Z,0.50
2023-02-28T00:45:46.835Z,0.50
2023-02-28T00:46:46.749Z,0.50
2023-02-28T00:47:46.728Z,0.40
2023-02-28T00:48:46.728Z,0.40
2023-02-28T00:49:46.709Z,0.50
2023-02-28T00:50:46.726Z,0.40
2023-02-28T00:51:46.681Z,0.60
2023-02-28T00:52:46.667Z,0.70
2023-02-28T00:53:46.658Z,0.60
2023-02-28T00:54:46.646Z,0.60
2023-02-28T00:55:46.660Z,0.50
2023-02-28T00:56:46.616Z,0.50
2023-02-28T00:57:46.598Z,0.60
2023-02-28T00:58:46.602Z,0.70
2023-02-28T00:59:46.590Z,0.50
2023-02-28T01:00:46.607Z,0.60
2023-02-28T01:01:46.613Z,0.40
2023-02-28T01:02:46.567Z,0.50
2023-02-28T01:03:46.536Z,0.60
2023-02-28T01:04:46.593Z,0.40
2023-02-28T01:05:46.531Z,0.40
2023-02-28T01:06:46.493Z,0.40
2023-02-28T01:07:46.481Z,0.70
2023-02-28T01:08:46.484Z,0.40
2023-02-28T01:09:46.458Z,0.40
2023-02-28T01:10:46.479Z,0.60
2023-02-28T01:11:46.425Z,0.40
2023-02-28T01:12:46.422Z,0.40
2023-02-28T01:13:46.404Z,0.60
2023-02-28T01:14:46.396Z,0.60
2023-02-28T01:15:46.474Z,0.50
2023-02-28T01:16:46.372Z,0.50
2023-02-28T01:17:46.364Z,0.40
2023-02-28T01:18:46.351Z,0.40
2023-02-28T01:19:46.334Z,0.40
2023-02-28T01:20:46.353Z,0.50
2023-02-28T01:21:46.336Z,0.40
2023-02-28T01:22:46.296Z,0.30
2023-02-28T01:23:46.274Z,0.40
2023-02-28T01:24:48.274Z,0.60
2023-02-28T01:25:46.333Z,0.50
2023-02-28T01:26:46.278Z,0.50
2023-02-28T01:27:46.223Z,0.50
2023-02-28T01:28:46.216Z,0.50
2023-02-28T01:29:46.194Z,0.70
2023-02-28T01:30:46.222Z,0.40
2023-02-28T01:31:46.264Z,0.60
2023-02-28T01:32:46.167Z,0.60
2023-02-28T01:33:46.144Z,0.80
2023-02-28T01:34:46.144Z,0.50
2023-02-28T01:35:46.130Z,0.50
2023-02-28T01:36:46.137Z,0.90
2023-02-28T01:37:46.110Z,0.60
2023-02-28T01:38:46.086Z,0.50
2023-02-28T01:39:46.071Z,0.80
2023-02-28T01:40:46.071Z,0.60
2023-02-28T01:41:46.097Z,0.40
2023-02-28T01:42:46.061Z,0.40
2023-02-28T01:43:46.034Z,0.60
2023-02-28T01:44:46.009Z,0.50
2023-02-28T01:45:46.037Z,0.40
2023-02-28T01:46:46.033Z,0.50
2023-02-28T01:47:45.962Z,0.70
2023-02-28T01:48:45.952Z,0.40
2023-02-28T01:49:45.944Z,0.60
2023-02-28T01:50:45.932Z,0.30
2023-02-28T01:51:45.944Z,0.60
2023-02-28T01:52:45.907Z,0.60
2023-02-28T01:53:45.909Z,0.60
2023-02-28T01:54:45.871Z,0.50
2023-02-28T01:55:45.861Z,0.90
2023-02-28T01:56:46.173Z,0.70
2023-02-28T01:57:45.842Z,0.50
2023-02-28T01:58:45.832Z,0.70
2023-02-28T01:59:45.811Z,0.50
2023-02-28T02:00:45.814Z,0.80
2023-02-28T02:01:45.887Z,0.70
2023-02-28T02:02:45.832Z,0.80
2023-02-28T02:03:45.792Z,0.40
2023-02-28T02:04:45.739Z,0.70
2023-02-28T02:05:45.736Z,0.70
2023-02-28T02:06:45.798Z,0.90
2023-02-28T02:07:45.711Z,1.00
2023-02-28T02:08:45.701Z,1.00
2023-02-28T02:09:45.697Z,0.60
2023-02-28T02:10:45.673Z,0.70
2023-02-28T02:11:45.695Z,0.90
2023-02-28T02:12:45.643Z,0.90
2023-02-28T02:13:45.638Z,0.70
2023-02-28T02:14:45.633Z,0.90
2023-02-28T02:15:45.645Z,0.90
2023-02-28T02:16:45.633Z,1.00
2023-02-28T02:17:45.575Z,1.00
2023-02-28T02:18:45.578Z,1.00
2023-02-28T02:19:45.556Z,1.00
2023-02-28T02:20:45.561Z,1.30
2023-02-28T02:21:45.551Z,1.40
2023-02-28T02:22:45.516Z,1.70
2023-02-28T02:23:45.505Z,1.10
2023-02-28T02:24:45.492Z,1.10
2023-02-28T02:25:45.492Z,1.40
2023-02-28T02:26:45.508Z,2.30
2023-02-28T02:27:45.455Z,1.50
2023-02-28T02:28:45.441Z,1.40
2023-02-28T02:29:45.440Z,1.10
2023-02-28T02:30:45.418Z,1.60
2023-02-28T02:31:45.532Z,2.00
2023-02-28T02:32:46.193Z,1.70
2023-02-28T02:33:45.392Z,1.10
2023-02-28T02:34:45.361Z,1.10
2023-02-28T02:35:45.362Z,0.70
2023-02-28T02:36:45.391Z,0.90
2023-02-28T02:37:45.341Z,1.00
2023-02-28T02:38:45.314Z,1.00
2023-02-28T02:39:45.300Z,0.70
2023-02-28T02:40:45.313Z,1.00
2023-02-28T02:41:45.306Z,1.00
2023-02-28T02:42:45.261Z,1.50
2023-02-28T02:43:45.251Z,1.70
2023-02-28T02:44:45.233Z,1.80
2023-02-28T02:45:45.247Z,1.50
2023-02-28T02:46:45.318Z,1.60
2023-02-28T02:47:45.190Z,1.70
2023-02-28T02:48:45.206Z,1.60
2023-02-28T02:49:45.170Z,1.70
2023-02-28T02:50:45.162Z,1.10
2023-02-28T02:51:45.169Z,1.00
2023-02-28T02:52:45.129Z,0.70
2023-02-28T02:53:45.119Z,0.90
2023-02-28T02:54:45.114Z,1.10
2023-02-28T02:55:45.099Z,0.70
2023-02-28T02:56:45.121Z,0.70
2023-02-28T02:57:45.074Z,0.50
2023-02-28T02:58:45.058Z,0.90
2023-02-28T02:59:45.037Z,0.70
2023-02-28T03:00:45.060Z,0.70
2023-02-28T03:01:45.035Z,0.60
2023-02-28T03:02:45.007Z,0.90
2023-02-28T03:03:45.043Z,0.60
2023-02-28T03:04:44.996Z,0.60
2023-02-28T03:05:44.965Z,0.80
2023-02-28T03:06:44.992Z,0.80
2023-02-28T03:07:44.935Z,0.70
2023-02-28T03:08:44.933Z,0.90
2023-02-28T03:09:44.924Z,1.30
2023-02-28T03:10:44.909Z,0.90
2023-02-28T03:11:44.920Z,0.70
2023-02-28T03:12:44.878Z,0.70
2023-02-28T03:13:44.864Z,0.60
2023-02-28T03:14:44.857Z,0.90
2023-02-28T03:15:44.832Z,0.60
2023-02-28T03:16:45.005Z,0.60
2023-02-28T03:17:44.817Z,0.60
2023-02-28T03:18:44.827Z,0.90
2023-02-28T03:19:44.786Z,0.60
2023-02-28T03:20:44.783Z,0.80
2023-02-28T03:21:44.803Z,0.50
2023-02-28T03:22:44.766Z,0.50
2023-02-28T03:23:44.733Z,0.60
2023-02-28T03:24:44.737Z,0.60
2023-02-28T03:25:44.711Z,0.80
2023-02-28T03:26:44.724Z,0.60
2023-02-28T03:27:44.697Z,0.60
2023-02-28T03:28:44.703Z,0.50
2023-02-28T03:29:44.686Z,0.90
2023-02-28T03:30:44.659Z,0.50
2023-02-28T03:31:44.740Z,0.70
2023-02-28T03:32:44.634Z,0.60
2023-02-28T03:33:44.631Z,0.60
2023-02-28T03:34:44.606Z,0.90
2023-02-28T03:35:44.615Z,0.50
2023-02-28T03:36:44.650Z,0.50
2023-02-28T03:37:44.558Z,0.70
2023-02-28T03:38:44.562Z,0.50
2023-02-28T03:39:44.535Z,0.60
2023-02-28T03:40:44.528Z,0.60
2023-02-28T03:41:44.540Z,0.80
2023-02-28T03:42:44.503Z,0.40
2023-02-28T03:43:44.485Z,0.60
2023-02-28T03:44:44.475Z,0.60
2023-02-28T03:45:44.516Z,0.60
2023-02-28T03:46:44.481Z,0.50
2023-02-28T03:47:44.440Z,0.60
2023-02-28T03:48:44.425Z,0.50
2023-02-28T03:49:44.420Z,0.60
2023-02-28T03:50:44.410Z,0.60
2023-02-28T03:51:44.405Z,0.60
2023-02-28T03:52:44.372Z,0.70
2023-02-28T03:53:44.393Z,0.60
2023-02-28T03:54:44.355Z,0.70
2023-02-28T03:55:44.346Z,0.70
2023-02-28T03:56:44.355Z,0.40
2023-02-28T03:57:44.319Z,0.60
2023-02-28T03:58:44.307Z,0.50
2023-02-28T03:59:44.299Z,0.60
2023-02-28T04:00:44.280Z,0.50
2023-02-28T04:01:44.321Z,0.60
2023-02-28T04:02:44.249Z,0.70
2023-02-28T04:03:44.242Z,0.50
2023-02-28T04:04:44.274Z,0.50
2023-02-28T04:05:44.215Z,0.80
2023-02-28T04:06:44.229Z,0.60
2023-02-28T04:07:44.196Z,0.50
2023-02-28T04:08:44.212Z,0.70
2023-02-28T04:09:44.147Z,0.70
2023-02-28T04:10:44.153Z,0.60
2023-02-28T04:11:44.157Z,0.80
2023-02-28T04:12:44.120Z,0.70
2023-02-28T04:13:45.591Z,0.60
2023-02-28T04:14:44.104Z,0.60
2023-02-28T04:15:44.116Z,0.50
2023-02-28T04:16:44.198Z,0.60
2023-02-28T04:17:44.054Z,0.90
2023-02-28T04:18:44.063Z,1.10
2023-02-28T04:19:44.026Z,1.20
2023-02-28T04:20:44.025Z,1.40
2023-02-28T04:21:44.044Z,1.30
2023-02-28T04:22:43.997Z,1.40
2023-02-28T04:23:43.987Z,1.30
2023-02-28T04:24:44.009Z,1.30
2023-02-28T04:25:43.957Z,1.00
2023-02-28T04:26:43.971Z,0.90
2023-02-28T04:27:43.924Z,0.90
2023-02-28T04:28:43.923Z,1.10
2023-02-28T04:29:43.902Z,1.10
2023-02-28T04:30:43.931Z,1.00
2023-02-28T04:31:43.937Z,1.30
2023-02-28T04:32:43.961Z,1.30
2023-02-28T04:33:43.858Z,1.30
2023-02-28T04:34:43.854Z,1.70
2023-02-28T04:35:43.854Z,0.90
2023-02-28T04:36:43.857Z,1.30
2023-02-28T04:37:43.813Z,0.80
2023-02-28T04:38:43.796Z,0.90
2023-02-28T04:39:43.801Z,1.10
2023-02-28T04:40:43.771Z,1.50
2023-02-28T04:41:43.796Z,1.30
2023-02-28T04:42:43.742Z,1.20
2023-02-28T04:43:43.733Z,0.80
2023-02-28T04:44:43.718Z,0.90
2023-02-28T04:45:43.746Z,0.70
2023-02-28T04:46:43.702Z,1.20
2023-02-28T04:47:43.696Z,1.40
2023-02-28T04:48:43.668Z,1.00
2023-02-28T04:49:43.747Z,1.20
2023-02-28T04:50:43.637Z,1.00
2023-02-28T04:51:43.643Z,1.00
2023-02-28T04:52:43.637Z,0.90
2023-02-28T04:53:43.619Z,1.40
2023-02-28T04:54:43.605Z,1.40
2023-02-28T04:55:43.573Z,2.20
2023-02-28T04:56:43.570Z,2.30
2023-02-28T04:57:43.626Z,2.60
2023-02-28T04:58:43.540Z,2.90
2023-02-28T04:59:43.526Z,2.50
2023-02-28T05:00:43.515Z,2.60
2023-02-28T05:01:43.492Z,3.00
2023-02-28T05:02:43.524Z,2.20
2023-02-28T05:03:43.481Z,2.60
2023-02-28T05:04:43.499Z,2.60
2023-02-28T05:05:43.439Z,2.50
2023-02-28T05:06:43.484Z,2.60
2023-02-28T05:07:43.472Z,2.00
2023-02-28T05:08:43.414Z,2.10
2023-02-28T05:09:43.390Z,2.10
2023-02-28T05:10:43.384Z,2.00
2023-02-28T05:11:43.376Z,1.90
2023-02-28T05:12:43.391Z,1.40
2023-02-28T05:13:43.344Z,1.50
2023-02-28T05:14:43.340Z,1.70
2023-02-28T05:15:43.318Z,1.40
2023-02-28T05:16:43.318Z,1.50
2023-02-28T05:17:43.330Z,1.30
2023-02-28T05:18:43.328Z,1.10
2023-02-28T05:19:43.288Z,1.40
2023-02-28T05:20:43.257Z,1.30
2023-02-28T05:21:43.336Z,1.30
2023-02-28T05:22:43.285Z,1.40
2023-02-28T05:23:43.242Z,1.30
2023-02-28T05:24:43.232Z,1.30
2023-02-28T05:25:43.186Z,1.50
2023-02-28T05:26:43.198Z,2.20
2023-02-28T05:27:43.175Z,3.40
2023-02-28T05:28:43.154Z,3.50
2023-02-28T05:29:43.162Z,3.30
2023-02-28T05:30:43.147Z,2.30
2023-02-28T05:31:43.155Z,1.60
2023-02-28T05:32:43.139Z,2.20
2023-02-28T05:33:44.015Z,5.90
2023-02-28T05:34:43.094Z,7.20
2023-02-28T05:35:43.110Z,5.80
2023-02-28T05:36:43.053Z,5.70
2023-02-28T05:37:43.054Z,7.70
2023-02-28T05:38:42.976Z,6.10
2023-02-28T05:39:43.028Z,5.00
2023-02-28T05:40:43.012Z,4.40
2023-02-28T05:41:42.941Z,5.60
2023-02-28T05:42:43.084Z,4.50
2023-02-28T05:43:42.978Z,6.60
2023-02-28T05:44:42.953Z,7.60
2023-02-28T05:45:42.939Z,7.00
2023-02-28T05:46:43.448Z,5.50
2023-02-28T05:47:42.912Z,2.80
2023-02-28T05:48:42.942Z,1.40
2023-02-28T05:49:42.879Z,1.60
2023-02-28T05:50:42.849Z,2.50
2023-02-28T05:51:42.871Z,2.10
2023-02-28T05:52:42.824Z,1.30
2023-02-28T05:53:42.802Z,1.60
2023-02-28T05:54:42.820Z,0.90
2023-02-28T05:55:42.752Z,1.20
2023-02-28T05:56:42.778Z,1.10
2023-02-28T05:57:43.422Z,0.90
2023-02-28T05:58:42.879Z,1.00
2023-02-28T05:59:42.850Z,1.20
2023-02-28T06:00:42.860Z,1.00
2023-02-28T06:01:42.939Z,1.00
2023-02-28T06:02:42.975Z,1.10
2023-02-28T06:03:42.800Z,1.30
2023-02-28T06:04:43.382Z,1.10
2023-02-28T06:05:42.720Z,0.80
2023-02-28T06:06:42.654Z,1.30
2023-02-28T06:07:42.639Z,1.20
2023-02-28T06:08:42.590Z,1.70
2023-02-28T06:09:42.579Z,1.40
2023-02-28T06:10:42.573Z,1.30
2023-02-28T06:11:42.570Z,1.40
2023-02-28T06:12:42.565Z,1.40
2023-02-28T06:13:42.574Z,1.40
2023-02-28T06:14:42.518Z,1.20
2023-02-28T06:15:42.531Z,1.10
2023-02-28T06:16:42.546Z,1.10
2023-02-28T06:17:42.665Z,1.40
2023-02-28T06:18:42.520Z,1.20
2023-02-28T06:19:42.474Z,1.40
2023-02-28T06:20:42.448Z,1.30
2023-02-28T06:21:42.434Z,1.50
2023-02-28T06:22:42.476Z,1.10
2023-02-28T06:23:42.420Z,1.10
2023-02-28T06:24:43.108Z,1.20
2023-02-28T06:25:42.478Z,1.20
2023-02-28T06:26:42.382Z,1.20
2023-02-28T06:27:42.398Z,1.20
2023-02-28T06:28:42.369Z,1.00
2023-02-28T06:29:42.352Z,1.20
2023-02-28T06:30:42.327Z,0.90
2023-02-28T06:31:42.335Z,0.90
2023-02-28T06:32:42.418Z,1.00
2023-02-28T06:33:42.305Z,1.10
2023-02-28T06:34:42.269Z,0.80
2023-02-28T06:35:42.297Z,1.00
2023-02-28T06:36:42.253Z,0.80
2023-02-28T06:37:42.255Z,0.80
2023-02-28T06:38:42.239Z,0.70
2023-02-28T06:39:42.217Z,1.00
2023-02-28T06:40:42.214Z,0.90
2023-02-28T06:41:54.293Z,0.70
2023-02-28T06:42:43.191Z,0.70
2023-02-28T06:43:42.162Z,1.00
2023-02-28T06:44:42.210Z,1.10
2023-02-28T06:45:42.138Z,1.20
2023-02-28T06:46:42.114Z,1.10
2023-02-28T06:47:42.184Z,1.00
2023-02-28T06:48:42.099Z,0.90
2023-02-28T06:49:42.089Z,1.10
2023-02-28T06:50:42.090Z,1.10
2023-02-28T06:51:42.825Z,1.10
2023-02-28T06:52:42.064Z,1.10
2023-02-28T06:53:42.033Z,0.90
2023-02-28T06:54:42.035Z,1.30
2023-02-28T06:55:42.038Z,1.30
2023-02-28T06:56:42.024Z,1.10
2023-02-28T06:57:42.024Z,1.10
2023-02-28T06:58:42.539Z,1.00
2023-02-28T06:59:42.083Z,1.10
2023-02-28T07:00:42.134Z,1.20
2023-02-28T07:01:41.980Z,0.90
2023-02-28T07:02:41.943Z,0.70
2023-02-28T07:03:41.902Z,1.20
2023-02-28T07:04:41.922Z,1.20
2023-02-28T07:05:41.901Z,2.00
2023-02-28T07:06:41.869Z,2.50
2023-02-28T07:07:41.879Z,2.40
2023-02-28T07:08:41.863Z,2.40
2023-02-28T07:09:41.861Z,2.40
2023-02-28T07:10:41.855Z,2.00
2023-02-28T07:11:41.812Z,2.00
2023-02-28T07:12:41.826Z,1.30
2023-02-28T07:13:41.776Z,1.60
2023-02-28T07:14:41.773Z,1.30
2023-02-28T07:15:44.037Z,1.60
2023-02-28T07:16:41.746Z,1.30
2023-02-28T07:17:41.759Z,1.20
2023-02-28T07:18:41.704Z,1.60
2023-02-28T07:19:41.702Z,1.50
2023-02-28T07:20:41.687Z,1.60
2023-02-28T07:21:41.691Z,1.40
2023-02-28T07:22:41.698Z,1.30
2023-02-28T07:23:41.680Z,1.10
2023-02-28T07:24:41.631Z,1.40
2023-02-28T07:25:41.635Z,0.80
2023-02-28T07:26:41.616Z,0.90
2023-02-28T07:27:42.332Z,1.10
2023-02-28T07:28:41.609Z,1.20
2023-02-28T07:29:41.604Z,0.80
2023-02-28T07:30:41.560Z,1.30
2023-02-28T07:31:41.704Z,0.90
2023-02-28T07:32:43.899Z,1.00
2023-02-28T07:33:41.555Z,0.80
2023-02-28T07:34:42.307Z,1.00
2023-02-28T07:35:41.502Z,1.20
2023-02-28T07:36:41.496Z,1.10
2023-02-28T07:37:41.554Z,1.20
2023-02-28T07:38:41.496Z,1.00
2023-02-28T07:39:41.470Z,2.80
2023-02-28T07:40:41.443Z,9.10
2023-02-28T07:41:41.432Z,11.10
2023-02-28T07:42:41.413Z,10.80
2023-02-28T07:43:41.448Z,8.40
2023-02-28T07:44:41.391Z,7.20
2023-02-28T07:45:41.371Z,6.50
2023-02-28T07:46:41.407Z,3.80
2023-02-28T07:47:41.372Z,2.40
2023-02-28T07:48:41.371Z,1.70
2023-02-28T07:49:41.331Z,1.80
2023-02-28T07:50:41.350Z,2.30
2023-02-28T07:51:41.314Z,1.90
2023-02-28T07:52:41.292Z,2.10
2023-02-28T07:53:41.303Z,2.40
2023-02-28T07:54:41.252Z,2.30
2023-02-28T07:55:41.250Z,1.80
2023-02-28T07:56:41.253Z,2.20
2023-02-28T07:57:41.253Z,2.10
2023-02-28T07:58:41.522Z,2.50
2023-02-28T07:59:41.202Z,1.70
2023-02-28T08:00:41.227Z,1.90
2023-02-28T08:01:41.229Z,3.60
2023-02-28T08:02:41.152Z,3.10
2023-02-28T08:03:41.192Z,2.90
2023-02-28T08:04:41.160Z,6.60
2023-02-28T08:05:41.148Z,5.60
2023-02-28T08:06:41.129Z,5.90
2023-02-28T08:07:41.100Z,4.80
2023-02-28T08:08:41.102Z,2.00
2023-02-28T08:09:41.091Z,2.10
2023-02-28T08:10:41.061Z,2.30
2023-02-28T08:11:41.055Z,1.40
2023-02-28T08:12:41.099Z,1.70
2023-02-28T08:13:41.062Z,1.40
2023-02-28T08:14:41.015Z,1.00
2023-02-28T08:15:41.000Z,1.40
2023-02-28T08:16:41.102Z,1.10
2023-02-28T08:17:40.990Z,1.30
2023-02-28T08:18:40.996Z,1.70
2023-02-28T08:19:40.957Z,1.10
2023-02-28T08:20:40.977Z,1.50
2023-02-28T08:21:40.934Z,1.40
2023-02-28T08:22:40.939Z,1.40
2023-02-28T08:23:40.896Z,1.40
2023-02-28T08:24:40.890Z,1.20
2023-02-28T08:25:40.899Z,1.70
2023-02-28T08:26:40.855Z,1.20
2023-02-28T08:27:40.855Z,1.10
2023-02-28T08:28:40.832Z,1.40
2023-02-28T08:29:41.759Z,1.10
2023-02-28T08:30:40.853Z,1.20
2023-02-28T08:31:40.793Z,1.30
2023-02-28T08:32:40.898Z,1.60
2023-02-28T08:33:40.818Z,1.50
2023-02-28T08:34:40.818Z,2.10
2023-02-28T08:35:40.772Z,2.00
2023-02-28T08:36:40.797Z,2.70
2023-02-28T08:37:40.747Z,1.70
2023-02-28T08:38:40.751Z,1.60
2023-02-28T08:39:40.823Z,2.00
2023-02-28T08:40:40.695Z,1.70
2023-02-28T08:41:40.837Z,1.10
2023-02-28T08:42:40.645Z,1.40
2023-02-28T08:43:40.672Z,1.40
2023-02-28T08:44:40.793Z,1.20
2023-02-28T08:45:40.854Z,1.50
2023-02-28T08:46:40.602Z,1.40
2023-02-28T08:47:40.589Z,1.20
2023-02-28T08:48:40.909Z,0.90
2023-02-28T08:49:40.578Z,1.40
2023-02-28T08:50:41.278Z,1.10
2023-02-28T08:51:40.596Z,1.00
2023-02-28T08:52:40.508Z,1.10
2023-02-28T08:53:40.806Z,1.00
2023-02-28T08:54:40.502Z,1.10
2023-02-28T08:55:40.475Z,0.90
2023-02-28T08:56:41.213Z,1.10
2023-02-28T08:57:40.449Z,1.10
2023-02-28T08:58:40.573Z,0.90
2023-02-28T08:59:40.433Z,1.20
2023-02-28T09:00:41.854Z,1.00
2023-02-28T09:01:40.396Z,1.00
2023-02-28T09:02:40.518Z,1.00
2023-02-28T09:03:40.508Z,1.10
2023-02-28T09:04:40.482Z,1.00
2023-02-28T09:05:40.352Z,1.30
2023-02-28T09:06:40.322Z,1.20
2023-02-28T09:07:40.482Z,1.10
2023-02-28T09:08:40.467Z,0.90
2023-02-28T09:09:40.292Z,1.30
2023-02-28T09:10:40.291Z,1.20
2023-02-28T09:11:40.264Z,1.00
2023-02-28T09:12:40.261Z,1.00
2023-02-28T09:13:40.259Z,0.80
2023-02-28T09:14:40.489Z,0.80
2023-02-28T09:15:40.376Z,1.20
2023-02-28T09:16:41.708Z,1.10
2023-02-28T09:17:44.432Z,1.40
2023-02-28T09:18:40.383Z,1.50
2023-02-28T09:19:40.170Z,1.50
2023-02-28T09:20:40.191Z,1.10
2023-02-28T09:21:40.275Z,1.40
2023-02-28T09:22:40.921Z,1.30
2023-02-28T09:23:40.111Z,1.30
2023-02-28T09:25:40.250Z,1.20
2023-02-28T09:26:47.214Z,1.30
2023-02-28T09:27:43.195Z,1.00
2023-02-28T09:28:40.349Z,1.20
2023-02-28T09:29:40.050Z,1.10
2023-02-28T09:30:40.058Z,1.10
2023-02-28T09:31:41.179Z,1.10
2023-02-28T09:32:39.991Z,1.00
2023-02-28T09:33:40.291Z,1.10
2023-02-28T09:34:40.205Z,1.20
2023-02-28T09:35:39.970Z,1.30
2023-02-28T09:36:45.336Z,0.90
2023-02-28T09:37:40.943Z,1.10
2023-02-28T09:38:39.951Z,1.10
2023-02-28T09:39:40.130Z,1.10
2023-02-28T09:40:39.892Z,1.20
2023-02-28T09:41:39.921Z,1.00
2023-02-28T09:42:39.910Z,1.10
2023-02-28T09:43:40.021Z,1.30
2023-02-28T09:44:40.039Z,1.10
2023-02-28T09:45:39.904Z,1.30
2023-02-28T09:46:39.856Z,1.10
2023-02-28T09:47:39.811Z,1.30
2023-02-28T09:48:41.187Z,1.10
2023-02-28T09:49:39.960Z,1.40
2023-02-28T09:50:39.787Z,1.40
2023-02-28T09:51:40.052Z,1.20
2023-02-28T09:52:39.766Z,1.40
2023-02-28T09:53:40.073Z,1.00
2023-02-28T09:54:39.710Z,1.10
2023-02-28T09:55:46.689Z,1.40
2023-02-28T09:56:41.449Z,1.50
2023-02-28T09:57:39.678Z,1.10
2023-02-28T09:58:42.548Z,1.20
2023-02-28T09:59:39.859Z,1.00
2023-02-28T10:00:39.633Z,1.40
2023-02-28T10:01:39.675Z,1.40
2023-02-28T10:02:39.645Z,2.10
2023-02-28T10:03:39.625Z,1.80
2023-02-28T10:04:39.662Z,1.60
2023-02-28T10:05:39.582Z,2.20
2023-02-28T10:06:39.549Z,1.80
2023-02-28T10:07:39.540Z,1.60
2023-02-28T10:08:39.582Z,1.40
2023-02-28T10:09:39.570Z,1.50
2023-02-28T10:10:39.742Z,1.60
2023-02-28T10:11:39.489Z,1.30
2023-02-28T10:12:39.489Z,1.30
2023-02-28T10:13:39.508Z,1.20
2023-02-28T10:14:39.448Z,1.10
2023-02-28T10:15:39.516Z,1.10
2023-02-28T10:16:39.439Z,1.20
2023-02-28T10:17:49.373Z,1.10
2023-02-28T10:18:40.440Z,1.10
2023-02-28T10:19:39.430Z,1.50
2023-02-28T10:20:39.385Z,1.30
2023-02-28T10:21:39.384Z,1.10
2023-02-28T10:22:39.341Z,1.20
2023-02-28T10:23:39.934Z,1.30
2023-02-28T10:24:39.326Z,1.30
2023-02-28T10:25:39.310Z,1.20
2023-02-28T10:26:39.285Z,1.30
2023-02-28T10:27:39.291Z,1.30
2023-02-28T10:28:39.272Z,1.10
2023-02-28T10:29:39.278Z,0.90
2023-02-28T10:30:39.238Z,1.30
2023-02-28T10:31:39.222Z,1.00
2023-02-28T10:32:39.213Z,1.10
2023-02-28T10:33:39.224Z,1.40
2023-02-28T10:34:39.225Z,1.00
2023-02-28T10:35:39.166Z,1.30
2023-02-28T10:36:39.158Z,1.30
2023-02-28T10:37:39.144Z,1.10
2023-02-28T10:38:39.146Z,1.10
2023-02-28T10:39:39.166Z,0.90
2023-02-28T10:40:39.137Z,1.30
2023-02-28T10:41:39.093Z,1.30
2023-02-28T10:42:39.082Z,1.10
2023-02-28T10:43:39.069Z,1.20
2023-02-28T10:44:39.086Z,1.10
2023-02-28T10:45:39.038Z,1.10
2023-02-28T10:46:39.065Z,1.00
2023-02-28T10:47:39.304Z,1.00
2023-02-28T10:48:39.186Z,0.90
2023-02-28T10:49:39.264Z,1.20
2023-02-28T10:50:39.120Z,1.40
2023-02-28T10:51:39.188Z,1.30
2023-02-28T10:52:39.083Z,1.50
2023-02-28T10:53:57.563Z,1.20
2023-02-28T10:54:39.953Z,1.30
2023-02-28T10:55:39.066Z,1.10
2023-02-28T10:56:39.041Z,1.40
2023-02-28T10:57:39.053Z,1.10
2023-02-28T10:58:38.873Z,1.20
2023-02-28T10:59:39.036Z,0.90
2023-02-28T11:00:38.842Z,1.00
2023-02-28T11:01:38.841Z,1.00
2023-02-28T11:02:38.865Z,1.30
2023-02-28T11:03:38.854Z,1.10
2023-02-28T11:04:39.073Z,1.30
2023-02-28T11:05:39.120Z,1.10
2023-02-28T11:06:38.805Z,1.10
2023-02-28T11:07:45.699Z,1.10
2023-02-28T11:08:39.776Z,1.10
2023-02-28T11:09:38.786Z,1.60
2023-02-28T11:10:38.721Z,1.80
2023-02-28T11:11:38.726Z,1.40
2023-02-28T11:12:46.963Z,1.30
2023-02-28T11:13:39.717Z,1.20
2023-02-28T11:14:38.791Z,1.30
2023-02-28T11:15:38.709Z,1.10
2023-02-28T11:16:38.628Z,1.30
2023-02-28T11:17:38.619Z,1.20
2023-02-28T11:18:38.618Z,1.30
2023-02-28T11:19:38.630Z,1.10
2023-02-28T11:20:38.578Z,0.80
2023-02-28T11:21:38.586Z,1.20
2023-02-28T11:22:38.547Z,1.30
2023-02-28T11:23:38.534Z,1.30
2023-02-28T11:24:38.571Z,1.50
2023-02-28T11:25:38.587Z,1.00
2023-02-28T11:26:38.509Z,1.10
2023-02-28T11:27:38.564Z,1.00
2023-02-28T11:28:38.465Z,1.30
2023-02-28T11:29:38.474Z,1.60
2023-02-28T11:30:38.445Z,1.40
2023-02-28T11:31:38.489Z,1.40
2023-02-28T11:32:39.486Z,1.20
2023-02-28T11:33:38.398Z,1.10
2023-02-28T11:34:38.434Z,0.90
2023-02-28T11:35:38.398Z,1.20
2023-02-28T11:36:38.388Z,1.00
2023-02-28T11:37:38.342Z,1.10
2023-02-28T11:38:38.356Z,1.10
2023-02-28T11:39:38.365Z,1.10
2023-02-28T11:40:38.312Z,1.20
2023-02-28T11:41:41.129Z,1.10
2023-02-28T11:42:38.283Z,1.20
2023-02-28T11:43:38.304Z,1.30
2023-02-28T11:44:38.260Z,1.20
2023-02-28T11:45:38.255Z,1.10
2023-02-28T11:46:38.262Z,0.80
2023-02-28T11:47:38.242Z,1.10
2023-02-28T11:48:38.234Z,0.90
2023-02-28T11:49:38.231Z,1.10
2023-02-28T11:50:38.199Z,1.10
2023-02-28T11:51:38.172Z,0.80
2023-02-28T11:52:38.154Z,0.90
2023-02-28T11:53:38.142Z,1.00
2023-02-28T11:54:38.160Z,1.00
2023-02-28T11:55:38.136Z,0.90
2023-02-28T11:56:38.133Z,1.00
2023-02-28T11:57:38.117Z,0.90
2023-02-28T11:58:38.073Z,0.80
2023-02-28T11:59:38.094Z,1.00
2023-02-28T12:00:38.056Z,1.00
2023-02-28T12:01:38.057Z,0.90
2023-02-28T12:02:38.174Z,0.70
2023-02-28T12:03:38.042Z,0.90
2023-02-28T12:04:38.030Z,0.90
2023-02-28T12:05:37.991Z,1.20
2023-02-28T12:06:37.976Z,1.10
2023-02-28T12:07:37.968Z,0.90
2023-02-28T12:08:37.958Z,1.10
2023-02-28T12:09:37.973Z,1.10
2023-02-28T12:10:37.933Z,2.00
2023-02-28T12:11:37.910Z,1.40
2023-02-28T12:12:37.899Z,1.40
2023-02-28T12:13:37.898Z,0.90
2023-02-28T12:14:37.964Z,0.80
2023-02-28T12:15:37.860Z,1.10
2023-02-28T12:16:37.901Z,0.90
2023-02-28T12:17:37.832Z,1.10
2023-02-28T12:18:37.826Z,1.20
2023-02-28T12:19:37.852Z,1.30
2023-02-28T12:20:37.804Z,2.10
2023-02-28T12:21:37.780Z,1.70
2023-02-28T12:22:37.780Z,1.00
2023-02-28T12:23:37.759Z,1.00
2023-02-28T12:24:37.790Z,0.80
2023-02-28T12:25:37.737Z,1.00
2023-02-28T12:26:42.029Z,1.30
2023-02-28T12:27:37.708Z,0.90
2023-02-28T12:28:37.689Z,1.10
2023-02-28T12:29:37.697Z,1.20
2023-02-28T12:30:37.672Z,1.30
2023-02-28T12:31:37.706Z,1.20
2023-02-28T12:32:37.667Z,1.10
2023-02-28T12:33:37.619Z,1.00
2023-02-28T12:34:37.660Z,0.90
2023-02-28T12:35:37.778Z,0.90
2023-02-28T12:36:37.597Z,1.30
2023-02-28T12:37:37.575Z,1.60
2023-02-28T12:38:37.557Z,1.10
2023-02-28T12:39:49.506Z,0.90
2023-02-28T12:40:38.531Z,1.00
2023-02-28T12:41:37.534Z,1.40
2023-02-28T12:42:37.503Z,1.10
2023-02-28T12:43:37.645Z,0.90
2023-02-28T12:44:37.512Z,1.10
2023-02-28T12:45:37.539Z,1.30
2023-02-28T12:46:37.488Z,1.00
2023-02-28T12:47:37.435Z,1.10
2023-02-28T12:48:37.424Z,1.10
2023-02-28T12:49:37.436Z,1.20
2023-02-28T12:50:37.401Z,1.10
2023-02-28T12:51:37.395Z,1.10
2023-02-28T12:52:38.313Z,1.10
2023-02-28T12:53:37.359Z,1.10
2023-02-28T12:54:37.389Z,1.20
2023-02-28T12:55:37.353Z,1.10
2023-02-28T12:56:37.313Z,1.20
2023-02-28T12:57:37.299Z,1.30
2023-02-28T12:58:37.306Z,1.70
2023-02-28T12:59:37.321Z,1.20
2023-02-28T13:00:37.272Z,1.20
2023-02-28T13:01:37.306Z,1.20
2023-02-28T13:02:37.299Z,1.30
2023-02-28T13:03:37.220Z,1.20
2023-02-28T13:04:37.252Z,1.10
2023-02-28T13:05:37.190Z,1.50
2023-02-28T13:06:37.212Z,1.20
2023-02-28T13:07:37.221Z,1.50
2023-02-28T13:08:39.013Z,1.30
2023-02-28T13:09:37.177Z,1.80
2023-02-28T13:10:37.185Z,1.80
2023-02-28T13:11:37.438Z,1.30
2023-02-28T13:12:37.108Z,1.20
2023-02-28T13:13:37.098Z,1.00
2023-02-28T13:14:37.151Z,1.20
2023-02-28T13:15:37.070Z,1.60
2023-02-28T13:16:37.074Z,0.90
2023-02-28T13:17:37.058Z,1.30
2023-02-28T13:18:37.086Z,1.30
2023-02-28T13:19:37.444Z,1.50